首页
METAR-TAF:

METAR-TAF

机场 :

努瓜婁發國際機場

汤加塔布岛, 汤加

纬度: 21-14S, 经度: 175-09W, 海拔: 38米

当前天气观测

该预报发布于14分钟前的04:00 UTC
风速5节,风向南转南东
温度 24°C
湿度 69%
气压 1014 hPa
能见度10公里或以上
散云层高于1800英尺
多云层高于12000英尺

METAR: NFTF 230400Z 15005KT 9999 SCT018 BKN120 24/18 Q1014

时间: 17:14 (04:14 UTC)

预报

该预报发布于4小时和51分钟前的23:23 UTC
预报有效从23日的 00点(UTC)到 23日的 24点(UTC)
风速7节,风向东南
能见度10公里或以上
少量云层高于1600英尺
多云层高于4000英尺

TAF: NFTF 222323Z 2300/2324 13007KT 9999 FEW016 BKN040

超过4000个机场的气象观测和天气预报(METAR&TAF报告)。

可查询的气象台以黄色和红色小点在地图上表示。

将鼠标移到小点上方,可查看气象台名称。

然后点击查看天气观测和预报。

如需切换地图:点击带黑十字的绿色按钮放大地图;点击带横线的绿色按钮缩小地图;或者点击绿色箭头查看邻近地区的地图。


METAR-TAF: